createdAt,value
2019-05-02T00:00:52.412Z,10.2
2019-05-02T00:01:53.812Z,10.2
2019-05-02T00:02:55.212Z,10.3
2019-05-02T00:03:56.649Z,10.2
2019-05-02T00:04:58.040Z,10.2
2019-05-02T00:06:03.004Z,10.2
2019-05-02T00:07:00.824Z,10.3
2019-05-02T00:08:02.235Z,10.2
2019-05-02T00:09:03.931Z,10.2
2019-05-02T00:10:04.995Z,10.2
2019-05-02T00:11:06.384Z,10.2
2019-05-02T00:12:07.783Z,10.2
2019-05-02T00:13:09.174Z,10.0
2019-05-02T00:14:10.572Z,10.1
2019-05-02T00:15:11.961Z,10.1
2019-05-02T00:16:14.234Z,10.1
2019-05-02T00:17:14.745Z,10.1
2019-05-02T00:18:16.150Z,10.1
2019-05-02T00:19:17.554Z,10.1
2019-05-02T00:20:21.126Z,10.1
2019-05-02T00:21:20.318Z,10.1
2019-05-02T00:22:21.733Z,10.1
2019-05-02T00:23:27.793Z,10.1
2019-05-02T00:24:24.600Z,10.1
2019-05-02T00:25:25.990Z,10.1
2019-05-02T00:26:27.385Z,10.1
2019-05-02T00:27:32.716Z,10.1
2019-05-02T00:28:30.132Z,10.1
2019-05-02T00:29:31.539Z,10.0
2019-05-02T00:30:34.648Z,10.0
2019-05-02T00:31:34.309Z,10.0
2019-05-02T00:32:35.698Z,10.0
2019-05-02T00:33:37.097Z,10.0
2019-05-02T00:34:38.494Z,10.0
2019-05-02T00:35:40.824Z,9.9
2019-05-02T00:36:41.253Z,9.9
2019-05-02T00:37:42.649Z,9.9
2019-05-02T00:38:44.043Z,9.9
2019-05-02T00:39:49.105Z,9.8
2019-05-02T00:40:46.829Z,9.8
2019-05-02T00:41:48.221Z,9.8
2019-05-02T00:42:53.395Z,9.8
2019-05-02T00:43:51.000Z,9.9
2019-05-02T00:44:52.386Z,9.8
2019-05-02T00:45:55.033Z,9.8
2019-05-02T00:46:55.145Z,9.8
2019-05-02T00:47:56.554Z,9.8
2019-05-02T00:48:59.942Z,9.8
2019-05-02T00:49:59.322Z,9.8
2019-05-02T00:51:00.716Z,9.8
2019-05-02T00:52:03.137Z,9.8
2019-05-02T00:53:07.236Z,9.7
2019-05-02T00:54:04.820Z,9.7
2019-05-02T00:55:06.215Z,9.8
2019-05-02T00:56:09.014Z,9.8
2019-05-02T00:57:08.981Z,9.7
2019-05-02T00:58:10.389Z,9.8
2019-05-02T00:59:11.772Z,9.8
2019-05-02T01:00:13.427Z,9.7
2019-05-02T01:01:14.575Z,9.7
2019-05-02T01:02:15.981Z,9.7
2019-05-02T01:03:17.948Z,9.7
2019-05-02T01:04:23.214Z,9.7
2019-05-02T01:05:20.129Z,9.7
2019-05-02T01:06:21.523Z,9.7
2019-05-02T01:07:25.414Z,9.6
2019-05-02T01:08:24.288Z,9.6
2019-05-02T01:09:25.661Z,9.6
2019-05-02T01:10:27.060Z,9.6
2019-05-02T01:11:31.843Z,9.7
2019-05-02T01:12:29.834Z,9.6
2019-05-02T01:13:31.268Z,9.5
2019-05-02T01:14:33.283Z,9.6
2019-05-02T01:15:34.141Z,9.6
2019-05-02T01:16:35.542Z,9.5
2019-05-02T01:17:36.932Z,9.6
2019-05-02T01:18:41.315Z,9.6
2019-05-02T01:19:39.680Z,9.5
2019-05-02T01:20:41.117Z,9.5
2019-05-02T01:21:42.529Z,9.6
2019-05-02T01:22:47.081Z,9.5
2019-05-02T01:23:45.276Z,9.4
2019-05-02T01:24:46.678Z,9.5
2019-05-02T01:25:52.757Z,9.5
2019-05-02T01:26:49.471Z,9.4
2019-05-02T01:27:50.863Z,9.4
2019-05-02T01:28:54.334Z,9.3
2019-05-02T01:29:53.662Z,9.4
2019-05-02T01:30:55.066Z,9.3
2019-05-02T01:31:56.482Z,9.3
2019-05-02T01:33:01.426Z,9.4
2019-05-02T01:33:59.242Z,9.3
2019-05-02T01:35:00.644Z,9.2
2019-05-02T01:36:06.137Z,9.3
2019-05-02T01:37:03.412Z,9.3
2019-05-02T01:38:04.802Z,9.3
2019-05-02T01:39:07.622Z,9.2
2019-05-02T01:40:07.595Z,9.2
2019-05-02T01:41:08.997Z,9.2
2019-05-02T01:42:10.420Z,9.2
2019-05-02T01:43:11.812Z,9.3
2019-05-02T01:44:13.207Z,9.1
2019-05-02T01:45:14.597Z,9.2
2019-05-02T01:46:17.122Z,9.2
2019-05-02T01:47:17.361Z,9.2
2019-05-02T01:48:18.756Z,9.3
2019-05-02T01:49:21.867Z,9.2
2019-05-02T01:50:21.513Z,9.2
2019-05-02T01:51:22.937Z,9.2
2019-05-02T01:52:24.999Z,9.2
2019-05-02T01:53:29.208Z,9.3
2019-05-02T01:54:27.070Z,9.2
2019-05-02T01:55:28.482Z,9.3
2019-05-02T01:56:33.042Z,9.3
2019-05-02T01:57:31.235Z,9.2
2019-05-02T01:58:32.635Z,9.3
2019-05-02T01:59:35.127Z,9.2
2019-05-02T02:00:35.399Z,9.2
2019-05-02T02:01:36.799Z,9.3
2019-05-02T02:02:38.198Z,9.2
2019-05-02T02:03:40.541Z,9.2
2019-05-02T02:04:40.956Z,9.2
2019-05-02T02:05:42.392Z,9.2
2019-05-02T02:06:45.120Z,9.3
2019-05-02T02:07:45.282Z,9.3
2019-05-02T02:08:46.672Z,9.2
2019-05-02T02:09:48.105Z,9.2
2019-05-02T02:10:50.636Z,9.2
2019-05-02T02:11:50.883Z,9.3
2019-05-02T02:13:03.229Z,9.3
2019-05-02T02:13:53.666Z,9.2
2019-05-02T02:14:55.533Z,9.1
2019-05-02T02:16:00.309Z,9.1
2019-05-02T02:16:57.791Z,9.1
2019-05-02T02:17:59.199Z,9.2
2019-05-02T02:19:03.994Z,9.1
2019-05-02T02:20:01.971Z,9.1
2019-05-02T02:21:03.365Z,9.1
2019-05-02T02:22:04.782Z,9.2
2019-05-02T02:23:10.255Z,9.1
2019-05-02T02:24:07.557Z,9.2
2019-05-02T02:25:08.981Z,9.1
2019-05-02T02:26:12.102Z,9.1
2019-05-02T02:27:11.763Z,9.1
2019-05-02T02:28:13.169Z,9.0
2019-05-02T02:29:14.553Z,9.0
2019-05-02T02:30:17.795Z,9.0
2019-05-02T02:31:17.313Z,9.1
2019-05-02T02:32:20.129Z,9.0
2019-05-02T02:33:20.121Z,9.0
2019-05-02T02:34:28.771Z,9.0
2019-05-02T02:35:22.889Z,9.0
2019-05-02T02:36:31.296Z,9.0
2019-05-02T02:37:25.675Z,9.1
2019-05-02T02:38:32.892Z,9.1
2019-05-02T02:39:28.434Z,9.0
2019-05-02T02:40:33.652Z,8.9
2019-05-02T02:41:31.238Z,9.0
2019-05-02T02:42:34.065Z,9.0
2019-05-02T02:43:34.993Z,9.0
2019-05-02T02:44:39.827Z,9.1
2019-05-02T02:45:36.790Z,9.0
2019-05-02T02:46:39.862Z,9.0
2019-05-02T02:47:39.539Z,9.1
2019-05-02T02:48:42.585Z,9.0
2019-05-02T02:49:42.367Z,9.1
2019-05-02T02:50:45.214Z,9.0
2019-05-02T02:51:45.139Z,9.1
2019-05-02T02:52:47.099Z,9.1
2019-05-02T02:53:47.909Z,9.1
2019-05-02T02:54:49.314Z,9.2
2019-05-02T02:56:00.833Z,9.1
2019-05-02T02:56:52.128Z,9.1
2019-05-02T02:57:58.365Z,9.2
2019-05-02T02:58:55.079Z,9.1
2019-05-02T03:00:06.709Z,9.2
2019-05-02T03:00:57.826Z,9.1
2019-05-02T03:02:09.359Z,9.2
2019-05-02T03:03:00.590Z,9.2
2019-05-02T03:04:08.618Z,9.3
2019-05-02T03:05:03.339Z,9.3
2019-05-02T03:06:05.604Z,9.2
2019-05-02T03:07:06.120Z,9.3
2019-05-02T03:08:07.529Z,9.2
2019-05-02T03:09:08.918Z,9.2
2019-05-02T03:10:10.350Z,9.3
2019-05-02T03:11:17.482Z,9.2
2019-05-02T03:12:13.137Z,9.2
2019-05-02T03:13:14.897Z,9.2
2019-05-02T03:14:15.920Z,9.3
2019-05-02T03:15:21.227Z,9.3
2019-05-02T03:16:18.660Z,9.3
2019-05-02T03:17:26.655Z,9.3
2019-05-02T03:18:21.570Z,9.3
2019-05-02T03:19:23.411Z,9.2
2019-05-02T03:20:24.506Z,9.3
2019-05-02T03:21:25.939Z,9.2
2019-05-02T03:22:27.339Z,9.3
2019-05-02T03:23:28.743Z,9.3
2019-05-02T03:24:30.131Z,9.2
2019-05-02T03:25:49.255Z,9.3
2019-05-02T03:26:32.898Z,9.2
2019-05-02T03:27:37.285Z,9.2
2019-05-02T03:28:35.668Z,9.3
2019-05-02T03:29:43.650Z,9.2
2019-05-02T03:30:38.594Z,9.2
2019-05-02T03:31:39.994Z,9.3
2019-05-02T03:32:41.409Z,9.3
2019-05-02T03:33:54.197Z,9.3
2019-05-02T03:34:52.336Z,9.2
2019-05-02T03:35:49.195Z,9.2
2019-05-02T03:36:47.100Z,9.3
2019-05-02T03:37:51.288Z,9.3
2019-05-02T03:38:49.848Z,9.3
2019-05-02T03:39:57.427Z,9.2
2019-05-02T03:40:52.639Z,9.1
2019-05-02T03:41:55.563Z,9.3
2019-05-02T03:42:55.536Z,9.2
2019-05-02T03:44:10.558Z,9.2
2019-05-02T03:45:03.823Z,9.2
2019-05-02T03:45:59.644Z,9.3
2019-05-02T03:47:01.813Z,9.3
2019-05-02T03:48:02.481Z,9.2
2019-05-02T03:49:07.243Z,9.3
2019-05-02T03:50:08.568Z,9.3
2019-05-02T03:51:20.039Z,9.2
2019-05-02T03:52:07.998Z,9.2
2019-05-02T03:53:09.383Z,9.3
2019-05-02T03:54:10.800Z,9.2
2019-05-02T03:55:12.204Z,9.2
2019-05-02T03:56:14.175Z,9.3
2019-05-02T03:57:14.965Z,9.3
2019-05-02T03:58:16.988Z,9.2
2019-05-02T03:59:17.715Z,9.2
2019-05-02T04:00:20.821Z,9.2
2019-05-02T04:01:20.493Z,9.3
2019-05-02T04:02:21.953Z,9.2
2019-05-02T04:03:23.249Z,9.2
2019-05-02T04:04:24.636Z,9.2
2019-05-02T04:05:26.040Z,9.2
2019-05-02T04:06:27.446Z,9.2
2019-05-02T04:07:34.691Z,9.2
2019-05-02T04:08:30.213Z,9.3
2019-05-02T04:09:32.201Z,9.2
2019-05-02T04:10:32.976Z,9.3
2019-05-02T04:11:39.150Z,9.2
2019-05-02T04:12:35.764Z,9.2
2019-05-02T04:13:38.158Z,9.3
2019-05-02T04:14:38.934Z,9.3
2019-05-02T04:15:39.964Z,9.3
2019-05-02T04:16:41.364Z,9.3
2019-05-02T04:17:42.764Z,9.3
2019-05-02T04:18:54.742Z,9.3
2019-05-02T04:19:45.511Z,9.3
2019-05-02T04:20:49.516Z,9.3
2019-05-02T04:21:52.507Z,9.3
2019-05-02T04:22:50.777Z,9.3
2019-05-02T04:23:51.018Z,9.3
2019-05-02T04:24:56.823Z,9.3
2019-05-02T04:25:53.923Z,9.3
2019-05-02T04:26:56.322Z,9.3
2019-05-02T04:27:56.693Z,9.3
2019-05-02T04:28:58.087Z,9.4
2019-05-02T04:30:09.895Z,9.3
2019-05-02T04:31:00.836Z,9.4
2019-05-02T04:32:04.310Z,9.4
2019-05-02T04:33:03.613Z,9.4
2019-05-02T04:34:14.017Z,9.4
2019-05-02T04:35:06.436Z,9.4
2019-05-02T04:36:14.820Z,9.3
2019-05-02T04:37:09.219Z,9.4
2019-05-02T04:38:20.010Z,9.4
2019-05-02T04:39:17.759Z,9.4
2019-05-02T04:40:13.509Z,9.5
2019-05-02T04:41:21.358Z,9.5
2019-05-02T04:42:19.578Z,9.5
2019-05-02T04:43:18.364Z,9.5
2019-05-02T04:44:19.127Z,9.5
2019-05-02T04:45:26.536Z,9.5
2019-05-02T04:46:26.855Z,9.5
2019-05-02T04:47:23.172Z,9.5
2019-05-02T04:48:24.585Z,9.5
2019-05-02T04:49:32.843Z,9.5
2019-05-02T04:50:29.473Z,9.5
2019-05-02T04:51:31.785Z,9.7
2019-05-02T04:52:30.215Z,9.6
2019-05-02T04:53:36.786Z,9.7
2019-05-02T04:54:33.084Z,9.7
2019-05-02T04:55:34.495Z,9.7
2019-05-02T04:56:42.217Z,9.7
2019-05-02T04:57:46.260Z,9.7
2019-05-02T04:58:40.737Z,9.7
2019-05-02T04:59:40.043Z,9.8
2019-05-02T05:00:45.117Z,9.7
2019-05-02T05:01:52.643Z,9.8
2019-05-02T05:02:44.659Z,9.8
2019-05-02T05:03:49.119Z,9.8
2019-05-02T05:04:49.383Z,9.7
2019-05-02T05:05:48.764Z,9.9
2019-05-02T05:06:56.225Z,9.8
2019-05-02T05:07:51.512Z,9.8
2019-05-02T05:08:52.908Z,9.8
2019-05-02T05:09:58.226Z,9.8
2019-05-02T05:10:57.274Z,9.8
2019-05-02T05:11:58.963Z,9.8
2019-05-02T05:12:58.468Z,9.8
2019-05-02T05:14:00.420Z,9.9
2019-05-02T05:15:01.268Z,9.9
2019-05-02T05:16:07.137Z,9.8
2019-05-02T05:17:04.232Z,9.9
2019-05-02T05:18:10.400Z,9.9
2019-05-02T05:19:07.631Z,10.0
2019-05-02T05:20:14.111Z,9.9
2019-05-02T05:21:10.642Z,10.0
2019-05-02T05:22:11.959Z,9.9
2019-05-02T05:23:15.746Z,10.1
2019-05-02T05:24:14.137Z,10.0
2019-05-02T05:25:17.638Z,10.1
2019-05-02T05:26:17.489Z,10.1
2019-05-02T05:27:22.522Z,10.1
2019-05-02T05:28:20.048Z,10.1
2019-05-02T05:29:23.274Z,10.2
2019-05-02T05:30:22.675Z,10.2
2019-05-02T05:31:25.520Z,10.1
2019-05-02T05:32:25.655Z,10.2
2019-05-02T05:33:28.402Z,10.2
2019-05-02T05:34:32.578Z,10.1
2019-05-02T05:43:13.594Z,10.3
2019-05-02T06:00:55.465Z,10.4
2019-05-02T06:01:57.872Z,10.5
2019-05-02T06:03:10.203Z,10.5
2019-05-02T06:04:01.682Z,10.5
2019-05-02T06:05:04.303Z,10.6
2019-05-02T06:06:09.741Z,10.6
2019-05-02T06:07:11.360Z,10.7
2019-05-02T06:08:18.247Z,10.6
2019-05-02T06:09:19.968Z,10.8
2019-05-02T06:10:24.425Z,10.8
2019-05-02T06:11:28.068Z,10.8
2019-05-02T06:12:35.193Z,10.8
2019-05-02T06:13:37.924Z,11.0
2019-05-02T06:14:39.179Z,10.8
2019-05-02T06:15:45.817Z,10.9
2019-05-02T06:16:51.243Z,10.9
2019-05-02T06:17:53.287Z,10.9
2019-05-02T06:18:58.107Z,11.0
2019-05-02T06:20:03.355Z,11.0
2019-05-02T06:21:09.233Z,11.0
2019-05-02T06:22:15.978Z,11.0
2019-05-02T06:23:17.801Z,11.0
2019-05-02T06:24:22.612Z,11.0
2019-05-02T06:25:34.598Z,11.1
2019-05-02T06:26:32.283Z,11.0
2019-05-02T06:27:36.725Z,11.1
2019-05-02T06:28:43.218Z,11.1
2019-05-02T06:29:51.006Z,11.1
2019-05-02T06:30:49.995Z,11.2
2019-05-02T06:31:54.610Z,11.2
2019-05-02T06:32:58.699Z,11.1
2019-05-02T06:34:06.917Z,11.2
2019-05-02T06:35:08.693Z,11.1
2019-05-02T06:36:12.404Z,11.1
2019-05-02T06:37:16.759Z,11.2
2019-05-02T06:38:21.952Z,11.3
2019-05-02T06:39:27.168Z,11.2
2019-05-02T06:40:30.206Z,11.3
2019-05-02T06:41:34.763Z,11.3
2019-05-02T06:42:38.119Z,11.3
2019-05-02T06:43:46.396Z,11.3
2019-05-02T06:44:46.495Z,11.3
2019-05-02T06:45:50.089Z,11.4
2019-05-02T06:46:53.052Z,11.4
2019-05-02T06:47:57.266Z,11.4
2019-05-02T06:49:01.088Z,11.5
2019-05-02T06:50:04.939Z,11.5
2019-05-02T06:51:11.003Z,11.5
2019-05-02T06:52:14.200Z,11.6
2019-05-02T06:53:18.422Z,11.6
2019-05-02T06:54:22.960Z,11.7
2019-05-02T06:55:28.135Z,11.7
2019-05-02T06:56:31.048Z,11.7
2019-05-02T06:57:34.974Z,11.8
2019-05-02T06:58:41.748Z,11.8
2019-05-02T06:59:44.998Z,11.9
2019-05-02T07:00:57.594Z,11.9
2019-05-02T07:01:57.272Z,11.9
2019-05-02T07:02:58.001Z,12.0
2019-05-02T07:04:04.021Z,11.9
2019-05-02T07:05:06.458Z,11.9
2019-05-02T07:06:10.483Z,11.9
2019-05-02T07:07:14.224Z,11.8
2019-05-02T07:08:19.116Z,11.9
2019-05-02T07:09:24.109Z,11.9
2019-05-02T07:10:30.917Z,11.8
2019-05-02T07:11:33.108Z,12.0
2019-05-02T07:12:35.809Z,12.0
2019-05-02T07:13:42.005Z,12.0
2019-05-02T07:14:45.784Z,12.0
2019-05-02T07:15:48.858Z,12.0
2019-05-02T07:16:54.449Z,12.0
2019-05-02T07:17:55.516Z,12.0
2019-05-02T07:18:58.816Z,11.9
2019-05-02T07:20:04.269Z,12.0
2019-05-02T07:21:07.262Z,12.0
2019-05-02T07:22:11.927Z,12.1
2019-05-02T07:23:18.132Z,12.1
2019-05-02T07:24:20.038Z,12.1
2019-05-02T07:25:23.720Z,12.1
2019-05-02T07:26:27.734Z,12.1
2019-05-02T07:27:33.677Z,12.1
2019-05-02T07:28:35.060Z,12.2
2019-05-02T07:29:39.622Z,12.2
2019-05-02T07:30:44.158Z,12.3
2019-05-02T07:31:47.776Z,12.3
2019-05-02T07:32:51.453Z,12.3
2019-05-02T07:33:56.658Z,12.3
2019-05-02T07:35:00.634Z,12.2
2019-05-02T07:36:04.393Z,12.2
2019-05-02T07:37:12.485Z,12.2
2019-05-02T07:38:12.495Z,12.3
2019-05-02T07:39:15.628Z,12.3
2019-05-02T07:40:19.595Z,12.3
2019-05-02T07:41:24.207Z,12.3
2019-05-02T07:42:28.200Z,12.3
2019-05-02T07:43:31.840Z,12.3
2019-05-02T07:44:36.978Z,12.4
2019-05-02T07:45:45.204Z,12.4
2019-05-02T07:46:51.614Z,12.5
2019-05-02T07:47:48.937Z,12.5
2019-05-02T07:48:54.499Z,12.4
2019-05-02T07:49:56.039Z,12.5
2019-05-02T07:50:59.251Z,12.4
2019-05-02T07:52:03.293Z,12.5
2019-05-02T07:53:09.647Z,12.5
2019-05-02T07:54:11.352Z,12.6
2019-05-02T07:55:15.794Z,12.5
2019-05-02T07:56:19.995Z,12.5
2019-05-02T07:57:25.277Z,12.6
2019-05-02T07:58:27.614Z,12.7
2019-05-02T07:59:31.324Z,12.6
2019-05-02T08:00:37.032Z,12.7
2019-05-02T08:01:38.522Z,12.7
2019-05-02T08:02:42.255Z,12.7
2019-05-02T08:03:46.878Z,12.7
2019-05-02T08:04:50.803Z,12.8
2019-05-02T08:05:54.491Z,12.8
2019-05-02T08:06:57.135Z,12.8
2019-05-02T08:08:01.065Z,13.0
2019-05-02T08:09:07.151Z,13.0
2019-05-02T08:10:07.391Z,12.8
2019-05-02T08:11:10.202Z,12.9
2019-05-02T08:12:14.220Z,12.9
2019-05-02T08:13:19.414Z,12.8
2019-05-02T08:14:22.088Z,13.0
2019-05-02T08:15:25.141Z,13.0
2019-05-02T08:16:28.876Z,13.0
2019-05-02T08:17:31.656Z,13.1
2019-05-02T08:18:35.375Z,12.9
2019-05-02T08:19:41.579Z,13.0
2019-05-02T08:20:40.718Z,13.0
2019-05-02T08:21:43.643Z,13.1
2019-05-02T08:22:49.009Z,13.1
2019-05-02T08:23:50.941Z,13.2
2019-05-02T08:24:54.966Z,13.2
2019-05-02T08:25:58.172Z,13.2
2019-05-02T08:27:01.361Z,13.1
2019-05-02T08:28:04.953Z,13.2
2019-05-02T08:29:08.592Z,13.1
2019-05-02T08:30:11.763Z,13.3
2019-05-02T08:31:18.759Z,13.3
2019-05-02T08:32:18.153Z,13.2
2019-05-02T08:33:21.451Z,13.2
2019-05-02T08:34:24.527Z,13.4
2019-05-02T08:35:28.419Z,13.4
2019-05-02T08:36:31.578Z,13.5
2019-05-02T08:37:35.401Z,13.6
2019-05-02T08:38:38.133Z,13.6
2019-05-02T08:39:41.497Z,13.6
2019-05-02T08:40:47.882Z,13.7
2019-05-02T08:41:51.229Z,13.7
2019-05-02T08:42:52.188Z,13.7
2019-05-02T08:43:55.029Z,13.8
2019-05-02T08:45:01.021Z,13.7
2019-05-02T08:46:02.171Z,13.7
2019-05-02T08:47:17.685Z,13.7
2019-05-02T08:48:08.194Z,13.8
2019-05-02T08:49:14.210Z,13.8
2019-05-02T08:50:13.406Z,13.7
2019-05-02T08:51:16.452Z,13.7
2019-05-02T08:52:19.626Z,13.8
2019-05-02T08:53:22.842Z,13.7
2019-05-02T08:54:27.906Z,13.9
2019-05-02T08:55:29.926Z,13.9
2019-05-02T08:56:31.475Z,14.0
2019-05-02T08:57:34.587Z,14.0
2019-05-02T08:58:37.246Z,14.1
2019-05-02T08:59:40.903Z,14.1
2019-05-02T09:00:46.878Z,14.3
2019-05-02T09:01:49.471Z,14.3
2019-05-02T09:02:49.390Z,14.5
2019-05-02T09:03:55.336Z,14.5
2019-05-02T09:04:58.827Z,14.3
2019-05-02T09:06:05.510Z,14.3
2019-05-02T09:07:01.979Z,14.3
2019-05-02T09:08:09.054Z,14.4
2019-05-02T09:09:08.094Z,14.4
2019-05-02T09:10:10.861Z,14.5
2019-05-02T09:11:14.209Z,14.5
2019-05-02T09:12:16.592Z,14.6
2019-05-02T09:13:26.134Z,14.5
2019-05-02T09:14:22.522Z,14.5
2019-05-02T09:15:25.755Z,14.6
2019-05-02T09:16:30.270Z,14.7
2019-05-02T09:17:37.757Z,14.7
2019-05-02T09:18:38.274Z,14.8
2019-05-02T09:19:37.572Z,14.9
2019-05-02T09:20:42.292Z,15.0
2019-05-02T09:21:43.665Z,15.1
2019-05-02T09:22:50.972Z,15.2
2019-05-02T09:23:51.358Z,15.2
2019-05-02T09:24:52.810Z,15.3
2019-05-02T09:25:55.614Z,15.4
2019-05-02T09:26:58.877Z,15.5
2019-05-02T09:28:01.883Z,15.5
2019-05-02T09:29:05.421Z,15.5
2019-05-02T09:30:06.859Z,15.6
2019-05-02T09:31:09.498Z,15.6
2019-05-02T09:32:12.555Z,15.6
2019-05-02T09:33:15.405Z,15.7
2019-05-02T09:34:21.603Z,15.7
2019-05-02T09:35:23.083Z,15.8
2019-05-02T09:36:24.793Z,15.9
2019-05-02T09:37:27.613Z,15.9
2019-05-02T09:38:32.728Z,16.0
2019-05-02T09:39:36.396Z,16.0
2019-05-02T09:40:37.533Z,16.0
2019-05-02T09:41:41.936Z,16.1
2019-05-02T09:42:47.418Z,16.2
2019-05-02T09:43:48.322Z,16.3
2019-05-02T09:44:55.693Z,16.3
2019-05-02T09:45:54.041Z,16.4
2019-05-02T09:46:58.123Z,16.5
2019-05-02T09:48:05.119Z,16.5
2019-05-02T09:49:10.665Z,16.5
2019-05-02T09:50:07.636Z,16.3
2019-05-02T09:51:15.656Z,16.4
2019-05-02T09:52:13.905Z,16.3
2019-05-02T09:53:20.863Z,16.3
2019-05-02T09:54:19.826Z,16.4
2019-05-02T09:55:22.922Z,16.6
2019-05-02T09:56:26.721Z,16.7
2019-05-02T09:57:31.603Z,16.8
2019-05-02T09:58:33.667Z,16.9
2019-05-02T09:59:36.565Z,17.0
2019-05-02T10:00:41.672Z,16.9
2019-05-02T10:01:42.780Z,17.1
2019-05-02T10:02:46.475Z,17.0
2019-05-02T10:03:49.248Z,17.1
2019-05-02T10:04:52.641Z,17.3
2019-05-02T10:05:56.569Z,17.4
2019-05-02T10:07:00.087Z,17.4
2019-05-02T10:08:06.730Z,17.5
2019-05-02T10:09:06.918Z,17.4
2019-05-02T10:10:12.545Z,17.6
2019-05-02T10:11:16.810Z,17.6
2019-05-02T10:12:17.192Z,17.6
2019-05-02T10:13:22.608Z,17.7
2019-05-02T10:14:24.112Z,17.8
2019-05-02T10:15:27.969Z,17.9
2019-05-02T10:16:31.913Z,18.2
2019-05-02T10:17:37.597Z,18.4
2019-05-02T10:18:38.159Z,18.4
2019-05-02T10:19:48.808Z,18.4
2019-05-02T10:20:44.909Z,18.4
2019-05-02T10:21:52.466Z,18.5
2019-05-02T10:22:53.044Z,18.6
2019-05-02T10:23:58.940Z,18.7
2019-05-02T10:24:58.204Z,18.7
2019-05-02T10:26:02.782Z,18.9
2019-05-02T10:27:08.381Z,19.0
2019-05-02T10:28:09.970Z,19.0
2019-05-02T10:29:12.730Z,19.0
2019-05-02T10:30:15.587Z,18.9
2019-05-02T10:31:18.443Z,19.0
2019-05-02T10:32:22.675Z,18.9
2019-05-02T10:33:28.048Z,18.9
2019-05-02T10:34:29.880Z,19.1
2019-05-02T10:35:37.453Z,19.0
2019-05-02T10:36:37.931Z,19.0
2019-05-02T10:37:42.997Z,19.1
2019-05-02T10:38:44.661Z,19.1
2019-05-02T10:39:49.039Z,19.2
2019-05-02T10:40:59.332Z,19.4
2019-05-02T10:41:57.673Z,19.5
2019-05-02T10:43:02.890Z,19.7
2019-05-02T10:44:05.174Z,19.8
2019-05-02T10:45:12.329Z,19.9
2019-05-02T10:46:12.792Z,19.8
2019-05-02T10:47:16.395Z,19.8
2019-05-02T10:48:25.892Z,19.7
2019-05-02T10:49:24.469Z,19.8
2019-05-02T10:50:27.888Z,19.5
2019-05-02T10:51:31.548Z,19.5
2019-05-02T10:52:34.393Z,19.6
2019-05-02T10:53:38.085Z,19.6
2019-05-02T10:54:42.173Z,19.5
2019-05-02T10:55:44.850Z,19.6
2019-05-02T10:56:48.918Z,19.7
2019-05-02T10:57:52.790Z,19.6
2019-05-02T10:58:56.543Z,19.4
2019-05-02T11:00:00.345Z,19.6
2019-05-02T11:01:04.335Z,19.7
2019-05-02T11:02:08.038Z,19.8
2019-05-02T11:03:12.159Z,19.8
2019-05-02T11:04:16.921Z,19.8
2019-05-02T11:05:24.663Z,19.8
2019-05-02T11:06:24.347Z,19.9
2019-05-02T11:07:28.031Z,20.0
2019-05-02T11:08:32.193Z,20.0
2019-05-02T11:09:36.750Z,20.0
2019-05-02T11:10:42.176Z,20.0
2019-05-02T11:11:44.123Z,20.0
2019-05-02T11:12:47.704Z,20.0
2019-05-02T11:13:53.432Z,20.2
2019-05-02T11:14:57.175Z,20.2
2019-05-02T11:16:01.658Z,20.2
2019-05-02T11:17:08.592Z,20.3
2019-05-02T11:18:10.192Z,20.3
2019-05-02T11:19:15.125Z,20.4
2019-05-02T11:20:19.543Z,20.7
2019-05-02T11:21:23.968Z,20.7
2019-05-02T11:22:27.696Z,20.5
2019-05-02T11:23:32.862Z,20.6
2019-05-02T11:24:34.808Z,20.7
2019-05-02T11:25:38.876Z,20.5
2019-05-02T11:26:42.827Z,20.5
2019-05-02T11:27:46.581Z,20.5
2019-05-02T11:28:51.994Z,20.6
2019-05-02T11:29:52.874Z,20.8
2019-05-02T11:30:57.032Z,20.8
2019-05-02T11:31:59.240Z,20.6
2019-05-02T11:33:04.021Z,20.6
2019-05-02T11:34:07.694Z,20.7
2019-05-02T11:35:12.140Z,20.5
2019-05-02T11:36:15.726Z,20.5
2019-05-02T11:37:19.587Z,20.6
2019-05-02T11:38:51.657Z,20.7
2019-05-02T11:39:32.896Z,20.9
2019-05-02T11:40:32.174Z,20.9
2019-05-02T11:41:35.234Z,21.0
2019-05-02T11:42:38.160Z,20.9
2019-05-02T11:43:44.832Z,21.0
2019-05-02T11:44:47.203Z,20.6
2019-05-02T11:45:55.878Z,20.6
2019-05-02T11:46:57.322Z,20.7
2019-05-02T11:48:08.601Z,20.6
2019-05-02T11:49:05.150Z,20.7
2019-05-02T11:50:08.396Z,20.7
2019-05-02T11:51:13.963Z,20.6
2019-05-02T11:52:15.727Z,20.7
2019-05-02T11:53:29.268Z,20.8
2019-05-02T11:54:23.623Z,21.0
2019-05-02T11:55:28.973Z,21.0
2019-05-02T11:56:32.898Z,21.2
2019-05-02T11:57:36.145Z,21.4
2019-05-02T11:58:42.355Z,21.5
2019-05-02T11:59:45.015Z,21.5
2019-05-02T12:00:49.879Z,21.4
2019-05-02T12:01:59.328Z,21.5
2019-05-02T12:02:59.524Z,21.5
2019-05-02T12:04:07.483Z,21.6
2019-05-02T12:05:08.175Z,21.5
2019-05-02T12:06:18.956Z,21.3
2019-05-02T12:07:16.982Z,21.3
2019-05-02T12:08:22.737Z,21.1
2019-05-02T12:09:26.842Z,21.1
2019-05-02T12:10:32.977Z,20.9
2019-05-02T12:11:35.625Z,21.0
2019-05-02T12:12:40.330Z,21.0
2019-05-02T12:13:47.289Z,21.0
2019-05-02T12:14:52.722Z,21.0
2019-05-02T12:15:55.504Z,21.0
2019-05-02T12:17:00.024Z,21.0
2019-05-02T12:18:03.838Z,20.9
2019-05-02T12:19:11.744Z,21.0
2019-05-02T12:20:13.053Z,21.0
2019-05-02T12:21:17.449Z,21.0
2019-05-02T12:22:22.604Z,21.1
2019-05-02T12:23:26.259Z,21.1
2019-05-02T12:24:31.758Z,21.1
2019-05-02T12:25:34.587Z,21.1
2019-05-02T12:26:39.208Z,21.2
2019-05-02T12:27:43.348Z,21.2
2019-05-02T12:28:47.857Z,21.3
2019-05-02T12:29:57.528Z,21.2
2019-05-02T12:30:55.710Z,21.0
2019-05-02T12:31:59.903Z,21.0
2019-05-02T12:33:03.743Z,21.0
2019-05-02T12:34:08.091Z,21.1
2019-05-02T12:35:12.498Z,21.0
2019-05-02T12:36:16.609Z,21.0
2019-05-02T12:37:21.863Z,21.2
2019-05-02T12:38:25.073Z,21.2
2019-05-02T12:39:31.582Z,21.0
2019-05-02T12:40:33.668Z,21.0
2019-05-02T12:41:37.790Z,21.0
2019-05-02T12:42:41.854Z,21.0
2019-05-02T12:43:46.101Z,20.9
2019-05-02T12:44:53.135Z,20.9
2019-05-02T12:45:54.808Z,21.0
2019-05-02T12:46:59.212Z,20.9
2019-05-02T12:48:03.117Z,20.6
2019-05-02T12:49:06.488Z,20.5
2019-05-02T12:50:12.048Z,20.5
2019-05-02T12:51:14.985Z,20.4
2019-05-02T12:52:19.975Z,20.4
2019-05-02T12:53:25.860Z,20.4
2019-05-02T12:54:32.537Z,20.6
2019-05-02T12:55:36.278Z,20.6
2019-05-02T12:56:41.804Z,20.7
2019-05-02T12:57:45.712Z,20.9
2019-05-02T12:58:52.871Z,21.0
2019-05-02T12:59:55.313Z,21.1
2019-05-02T13:00:59.557Z,21.3
2019-05-02T13:02:05.135Z,21.5
2019-05-02T13:03:09.188Z,21.4
2019-05-02T13:04:13.450Z,21.5
2019-05-02T13:05:18.048Z,21.6
2019-05-02T13:06:23.065Z,21.4
2019-05-02T13:07:27.871Z,21.4
2019-05-02T13:08:33.016Z,21.5
2019-05-02T13:09:38.579Z,21.6
2019-05-02T13:10:42.396Z,21.5
2019-05-02T13:11:46.488Z,21.6
2019-05-02T13:12:49.400Z,21.5
2019-05-02T13:13:53.641Z,21.3
2019-05-02T13:14:58.896Z,21.2
2019-05-02T13:16:04.453Z,21.0
2019-05-02T13:17:08.034Z,20.9
2019-05-02T13:18:12.470Z,20.7
2019-05-02T13:19:16.312Z,20.7
2019-05-02T13:20:22.332Z,20.6
2019-05-02T13:21:24.696Z,20.6
2019-05-02T13:22:29.046Z,20.5
2019-05-02T13:23:36.056Z,20.4
2019-05-02T13:24:37.214Z,20.5
2019-05-02T13:25:42.446Z,20.5
2019-05-02T13:26:51.352Z,20.6
2019-05-02T13:27:52.101Z,20.5
2019-05-02T13:28:54.696Z,20.6
2019-05-02T13:29:59.609Z,20.6
2019-05-02T13:31:03.813Z,20.6
2019-05-02T13:32:08.658Z,20.6
2019-05-02T13:33:12.834Z,20.7
2019-05-02T13:34:16.862Z,20.6
2019-05-02T13:35:22.252Z,20.7
2019-05-02T13:36:25.910Z,20.6
2019-05-02T13:37:31.806Z,20.5
2019-05-02T13:38:34.964Z,20.6
2019-05-02T13:39:39.234Z,20.5
2019-05-02T13:40:43.871Z,20.3
2019-05-02T13:41:48.019Z,20.2
2019-05-02T13:42:52.653Z,20.1
2019-05-02T13:43:55.600Z,19.8
2019-05-02T13:44:59.395Z,19.7
2019-05-02T13:46:04.820Z,19.6
2019-05-02T13:47:09.543Z,19.6
2019-05-02T13:48:15.141Z,19.6
2019-05-02T13:49:21.986Z,19.8
2019-05-02T13:50:25.051Z,19.8
2019-05-02T13:51:31.908Z,19.9
2019-05-02T13:52:34.872Z,19.9
2019-05-02T13:53:40.009Z,19.9
2019-05-02T13:54:43.421Z,19.6
2019-05-02T13:55:48.294Z,19.6
2019-05-02T13:56:53.312Z,19.6
2019-05-02T13:57:58.914Z,19.6
2019-05-02T13:59:03.634Z,19.7
2019-05-02T14:00:07.339Z,19.7
2019-05-02T14:01:12.336Z,19.6
2019-05-02T14:02:16.869Z,19.6
2019-05-02T14:03:22.610Z,19.8
2019-05-02T14:04:26.460Z,19.9
2019-05-02T14:05:31.838Z,19.9
2019-05-02T14:06:37.954Z,19.8
2019-05-02T14:07:42.919Z,19.7
2019-05-02T14:08:46.321Z,19.7
2019-05-02T14:09:57.878Z,19.6
2019-05-02T14:10:57.244Z,19.5
2019-05-02T14:12:02.948Z,19.6
2019-05-02T14:13:07.433Z,19.6
2019-05-02T14:14:12.776Z,19.4
2019-05-02T14:15:17.397Z,19.4
2019-05-02T14:16:23.402Z,19.4
2019-05-02T14:17:28.080Z,19.5
2019-05-02T14:18:33.635Z,19.4
2019-05-02T14:19:37.650Z,19.4
2019-05-02T14:20:42.781Z,19.3
2019-05-02T14:21:44.592Z,19.3
2019-05-02T14:22:52.522Z,19.2
2019-05-02T14:23:55.401Z,19.2
2019-05-02T14:25:01.825Z,19.0
2019-05-02T14:26:06.838Z,18.9
2019-05-02T14:27:17.201Z,18.9
2019-05-02T14:28:19.934Z,18.8
2019-05-02T14:29:24.753Z,18.7
2019-05-02T14:30:37.102Z,18.7
2019-05-02T14:31:35.529Z,18.7